Inglewood, Washington
Current Conditions -  °F | °C
As of 3:53 PM on Thursday 18 Dec 2014 (Local Time) from KPAE Reporting Station
Broken Clouds Broken Clouds  
Wind Chill: 43°   Ceiling: 9000
Heat Index: 48°   Visibility: 10mi
Dew Point: 41°   Wind: 12mph
Humidity: 77%   Direction: 150°SSE
Pressure: 29.79"   Gusts: NA
Location:  47.7527°N, 122.215°W
Report Text: KPAE 182353Z 15010KT 10SM FEW055 SCT075 BKN090 09/05 A2979 RMK AO2 RAE2257B18E39 SLP089 P0000 60001 T00890050 10094 20072 58013
Loading
Personal Weather Stations






























Interactive Weather Map New forecast layout! Learn more

10-Day Weather Forecast

Advertisements
Track Severe Weather on mobile